Time;durP1;ratioP1;P1;durP2;ratioP2;P2;SDS_P1;SDS_P2;PMS_P1;PMS_P2;Temp;Humidity;BMP_temperature;BMP_pressure;BME280_temperature;BME280_humidity;BME280_pressure;Samples;Min_cycle;Max_cycle;Signal;HPM_P1;HPM_P2
2023/04/13 00:00:28;;;;;;;1.85;0.43;;;;;;;;;;5034141;28;20025;-70
2023/04/13 00:02:54;;;;;;;1.25;0.55;;;;;;;;;;5038076;28;20029;-70
2023/04/13 00:05:20;;;;;;;4.78;1.00;;;;;;;;;;5042898;28;20139;-70
2023/04/13 00:07:45;;;;;;;0.77;0.50;;;;;;;;;;5035740;28;20496;-70
2023/04/13 00:10:10;;;;;;;0.40;0.30;;;;;;;;;;5037595;28;20037;-70
2023/04/13 00:12:36;;;;;;;1.40;0.75;;;;;;;;;;5035414;28;21720;-71
2023/04/13 00:15:02;;;;;;;0.47;0.35;;;;;;;;;;5040143;28;20158;-71
2023/04/13 00:17:27;;;;;;;5.15;0.70;;;;;;;;;;5037446;28;20047;-71
2023/04/13 00:19:52;;;;;;;2.03;0.60;;;;;;;;;;5035624;28;20466;-71
2023/04/13 00:22:18;;;;;;;0.90;0.40;;;;;;;;;;5035547;28;20029;-71
2023/04/13 00:24:43;;;;;;;1.40;0.55;;;;;;;;;;5035901;28;20461;-71
2023/04/13 00:27:09;;;;;;;1.55;0.40;;;;;;;;;;5037259;28;20121;-71
2023/04/13 00:29:35;;;;;;;3.08;0.85;;;;;;;;;;5035522;28;20048;-71
2023/04/13 00:32:00;;;;;;;0.90;0.47;;;;;;;;;;5038532;28;20060;-71
2023/04/13 00:34:26;;;;;;;4.10;0.50;;;;;;;;;;5037724;28;20100;-71
2023/04/13 00:36:51;;;;;;;0.70;0.50;;;;;;;;;;5035361;28;20021;-71
2023/04/13 00:39:22;;;;;;;1.55;0.65;;;;;;;;;;5038344;28;20132;-71
2023/04/13 00:41:50;;;;;;;2.08;0.50;;;;;;;;;;5035249;28;20528;-70
2023/04/13 00:44:18;;;;;;;1.20;0.40;;;;;;;;;;5037439;28;20080;-70
2023/04/13 00:46:45;;;;;;;0.55;0.35;;;;;;;;;;5039149;28;20052;-70
2023/04/13 00:49:11;;;;;;;2.92;0.95;;;;;;;;;;5033778;28;20029;-70
2023/04/13 00:51:37;;;;;;;1.63;0.65;;;;;;;;;;5036984;28;20116;-69
2023/04/13 00:54:03;;;;;;;4.40;0.98;;;;;;;;;;5034559;28;20017;-70
2023/04/13 00:56:28;;;;;;;7.25;0.57;;;;;;;;;;5036098;28;20033;-70
2023/04/13 00:58:55;;;;;;;0.32;0.22;;;;;;;;;;5035114;28;20052;-70
2023/04/13 01:01:20;;;;;;;1.75;0.43;;;;;;;;;;5048357;28;20343;-70
2023/04/13 01:03:47;;;;;;;10.68;0.65;;;;;;;;;;5035388;28;20018;-70
2023/04/13 01:06:32;;;;;;;1.92;0.30;;;;;;;;;;5032330;28;20025;-70
2023/04/13 01:09:21;;;;;;;1.90;0.60;;;;;;;;;;5033505;28;20045;-70
2023/04/13 01:11:51;;;;;;;0.82;0.57;;;;;;;;;;5024263;28;20029;-69
2023/04/13 01:14:23;;;;;;;0.75;0.40;;;;;;;;;;5032266;28;20029;-70
2023/04/13 01:16:51;;;;;;;4.38;0.57;;;;;;;;;;5035696;28;20030;-69
2023/04/13 01:19:30;;;;;;;0.10;0.10;;;;;;;;;;5032001;28;20486;-70
2023/04/13 01:21:56;;;;;;;4.07;0.73;;;;;;;;;;5030411;28;20032;-70
2023/04/13 01:24:29;;;;;;;2.20;0.47;;;;;;;;;;5035675;28;20259;-69
2023/04/13 01:26:57;;;;;;;1.33;0.60;;;;;;;;;;5032120;28;20028;-70
2023/04/13 01:29:24;;;;;;;0.77;0.50;;;;;;;;;;5031874;28;20067;-70
2023/04/13 01:31:49;;;;;;;1.95;0.90;;;;;;;;;;5033093;28;20399;-70
2023/04/13 01:34:15;;;;;;;0.80;0.22;;;;;;;;;;5031746;28;20544;-70
2023/04/13 01:36:42;;;;;;;1.50;0.80;;;;;;;;;;5031215;28;20294;-70
2023/04/13 01:39:07;;;;;;;7.38;0.70;;;;;;;;;;5030808;28;20478;-70
2023/04/13 01:41:33;;;;;;;6.47;0.88;;;;;;;;;;5033547;28;20121;-69
2023/04/13 01:43:58;;;;;;;2.17;0.20;;;;;;;;;;5031960;28;20022;-69
2023/04/13 01:46:25;;;;;;;3.63;0.65;;;;;;;;;;5030727;28;20478;-70
2023/04/13 01:48:52;;;;;;;0.47;0.30;;;;;;;;;;5032614;28;20513;-70
2023/04/13 01:51:18;;;;;;;2.20;0.50;;;;;;;;;;5030612;28;20029;-69
2023/04/13 01:53:45;;;;;;;1.45;0.52;;;;;;;;;;5030317;28;20390;-69
2023/04/13 01:56:11;;;;;;;3.35;0.63;;;;;;;;;;5030361;28;20037;-70
2023/04/13 01:58:39;;;;;;;4.72;0.70;;;;;;;;;;5031316;28;20017;-70
2023/04/13 02:01:06;;;;;;;2.72;0.63;;;;;;;;;;5028587;28;20017;-69
2023/04/13 02:03:32;;;;;;;3.83;0.60;;;;;;;;;;5030792;28;20533;-69
2023/04/13 02:05:57;;;;;;;0.55;0.55;;;;;;;;;;5032193;28;20087;-71
2023/04/13 02:08:22;;;;;;;1.87;0.50;;;;;;;;;;5031662;28;20014;-70
2023/04/13 02:10:48;;;;;;;12.60;0.47;;;;;;;;;;5031704;28;20772;-70
2023/04/13 02:13:13;;;;;;;0.40;0.32;;;;;;;;;;5031527;28;20337;-70
2023/04/13 02:15:38;;;;;;;4.40;0.60;;;;;;;;;;5031085;28;20059;-70
2023/04/13 02:18:04;;;;;;;6.13;0.57;;;;;;;;;;5032900;28;20049;-70
2023/04/13 02:20:32;;;;;;;6.30;0.43;;;;;;;;;;5029988;28;20018;-70
2023/04/13 02:22:57;;;;;;;0.45;0.20;;;;;;;;;;5035174;28;20060;-70
2023/04/13 02:25:22;;;;;;;6.32;0.50;;;;;;;;;;5027258;28;20048;-70
2023/04/13 02:27:48;;;;;;;1.60;0.50;;;;;;;;;;5030904;28;20128;-70
2023/04/13 02:30:13;;;;;;;0.40;0.20;;;;;;;;;;5028930;28;20025;-70
2023/04/13 02:32:41;;;;;;;0.85;0.30;;;;;;;;;;5029889;28;20788;-70
2023/04/13 02:35:10;;;;;;;1.08;0.28;;;;;;;;;;5030109;28;20112;-70
2023/04/13 02:37:38;;;;;;;4.72;0.30;;;;;;;;;;5030517;28;20079;-70
2023/04/13 02:40:06;;;;;;;2.17;0.52;;;;;;;;;;5031493;28;20021;-70
2023/04/13 02:42:31;;;;;;;2.15;0.50;;;;;;;;;;5030844;28;20028;-70
2023/04/13 02:44:57;;;;;;;1.13;0.60;;;;;;;;;;5031736;28;20033;-70
2023/04/13 02:47:22;;;;;;;3.97;0.32;;;;;;;;;;5030064;28;20628;-70
2023/04/13 02:49:47;;;;;;;1.70;0.67;;;;;;;;;;5030569;28;20029;-70
2023/04/13 02:52:12;;;;;;;1.33;0.40;;;;;;;;;;5028687;28;20302;-69
2023/04/13 02:54:37;;;;;;;2.08;0.50;;;;;;;;;;5032485;28;20679;-70
2023/04/13 02:57:03;;;;;;;3.53;0.77;;;;;;;;;;5034911;28;20025;-70
2023/04/13 02:59:29;;;;;;;2.83;0.80;;;;;;;;;;5029869;28;20056;-70
2023/04/13 03:01:57;;;;;;;4.50;0.40;;;;;;;;;;5028932;28;20045;-70
2023/04/13 03:04:22;;;;;;;1.55;0.55;;;;;;;;;;5032589;28;20448;-70
2023/04/13 03:06:48;;;;;;;3.55;0.60;;;;;;;;;;5032925;28;20017;-69
2023/04/13 03:09:13;;;;;;;0.10;0.05;;;;;;;;;;5028912;28;20029;-70
2023/04/13 03:11:38;;;;;;;1.58;0.70;;;;;;;;;;5029235;28;20025;-69
2023/04/13 03:14:03;;;;;;;1.08;0.32;;;;;;;;;;5028639;28;20072;-69
2023/04/13 03:16:28;;;;;;;3.43;0.60;;;;;;;;;;5029595;28;20018;-70
2023/04/13 03:18:54;;;;;;;6.57;0.80;;;;;;;;;;5030231;28;20272;-70
2023/04/13 03:21:20;;;;;;;6.63;0.70;;;;;;;;;;5033251;28;20275;-69
2023/04/13 03:23:45;;;;;;;0.20;0.20;;;;;;;;;;5030118;28;20017;-69
2023/04/13 03:26:10;;;;;;;2.27;0.40;;;;;;;;;;5032173;28;20291;-69
2023/04/13 03:28:35;;;;;;;0.95;0.30;;;;;;;;;;5029800;28;20351;-69
2023/04/13 03:31:00;;;;;;;2.20;0.20;;;;;;;;;;5027455;28;20058;-69
2023/04/13 03:33:26;;;;;;;0.10;0.10;;;;;;;;;;5028804;28;20784;-69
2023/04/13 03:35:51;;;;;;;8.17;1.13;;;;;;;;;;5032598;28;20557;-69
2023/04/13 03:38:16;;;;;;;0.90;0.50;;;;;;;;;;5031541;28;20284;-70
2023/04/13 03:40:41;;;;;;;0.27;0.20;;;;;;;;;;5028863;28;20360;-70
2023/04/13 03:43:06;;;;;;;3.50;0.40;;;;;;;;;;5028989;28;20275;-70
2023/04/13 03:45:32;;;;;;;7.35;0.68;;;;;;;;;;5029847;28;20630;-70
2023/04/13 03:47:57;;;;;;;1.13;0.55;;;;;;;;;;5034485;28;20043;-70
2023/04/13 03:50:22;;;;;;;0.25;0.25;;;;;;;;;;5029861;28;20106;-70
2023/04/13 03:52:47;;;;;;;6.70;0.68;;;;;;;;;;5031563;28;20440;-70
2023/04/13 03:55:13;;;;;;;0.10;0.10;;;;;;;;;;5032223;28;20108;-70
2023/04/13 03:57:38;;;;;;;3.10;1.13;;;;;;;;;;5028802;28;20060;-70
2023/04/13 04:00:05;;;;;;;2.55;1.05;;;;;;;;;;5028445;28;20066;-70
2023/04/13 04:02:31;;;;;;;4.18;1.27;;;;;;;;;;5026674;28;20362;-70
2023/04/13 04:04:56;;;;;;;0.90;0.55;;;;;;;;;;5032318;28;20028;-70
2023/04/13 04:07:22;;;;;;;3.72;0.40;;;;;;;;;;5029264;28;20030;-70
2023/04/13 04:09:47;;;;;;;2.72;0.50;;;;;;;;;;5031574;28;20021;-71
2023/04/13 04:12:12;;;;;;;3.53;1.02;;;;;;;;;;5029571;28;20022;-70
2023/04/13 04:14:38;;;;;;;0.40;0.40;;;;;;;;;;5029275;28;20014;-70
2023/04/13 04:17:03;;;;;;;2.83;0.40;;;;;;;;;;5029877;28;20033;-70
2023/04/13 04:19:28;;;;;;;2.40;0.77;;;;;;;;;;5028827;28;20621;-70
2023/04/13 04:21:56;;;;;;;1.47;0.40;;;;;;;;;;5027958;28;20308;-70
2023/04/13 04:24:22;;;;;;;5.07;0.65;;;;;;;;;;5028947;28;20259;-70
2023/04/13 04:26:53;;;;;;;5.13;0.40;;;;;;;;;;5026314;28;20022;-70
2023/04/13 04:29:20;;;;;;;0.85;0.40;;;;;;;;;;5028821;28;20021;-70
2023/04/13 04:31:51;;;;;;;1.40;0.30;;;;;;;;;;5027418;28;20024;-70
2023/04/13 04:34:17;;;;;;;3.05;0.55;;;;;;;;;;5032041;28;20021;-70
2023/04/13 04:36:44;;;;;;;0.43;0.20;;;;;;;;;;5032553;28;20072;-70
2023/04/13 04:39:09;;;;;;;0.98;0.38;;;;;;;;;;5031367;28;20028;-70
2023/04/13 04:41:36;;;;;;;2.35;0.50;;;;;;;;;;5030879;28;20093;-70
2023/04/13 04:44:02;;;;;;;1.40;0.40;;;;;;;;;;5029462;28;20022;-70
2023/04/13 04:46:28;;;;;;;1.73;0.60;;;;;;;;;;5029196;28;20067;-70
2023/04/13 04:48:53;;;;;;;3.05;0.65;;;;;;;;;;5031834;28;20406;-70
2023/04/13 04:51:23;;;;;;;3.95;0.60;;;;;;;;;;5028023;28;20044;-69
2023/04/13 04:53:48;;;;;;;7.95;0.52;;;;;;;;;;5031520;28;20467;-69
2023/04/13 04:56:13;;;;;;;1.75;0.38;;;;;;;;;;5027540;28;20109;-69
2023/04/13 04:58:39;;;;;;;0.77;0.57;;;;;;;;;;5023843;28;20021;-69
2023/04/13 05:01:04;;;;;;;1.38;0.30;;;;;;;;;;5028923;28;20745;-69
2023/04/13 05:03:29;;;;;;;1.13;0.40;;;;;;;;;;5030821;28;20482;-69
2023/04/13 05:05:54;;;;;;;1.07;0.50;;;;;;;;;;5029816;28;20025;-69
2023/04/13 05:08:20;;;;;;;3.50;0.85;;;;;;;;;;5030196;28;20283;-69
2023/04/13 05:10:45;;;;;;;0.67;0.30;;;;;;;;;;5032036;28;20024;-69
2023/04/13 05:13:11;;;;;;;0.65;0.25;;;;;;;;;;5035607;28;20284;-69
2023/04/13 05:15:36;;;;;;;0.50;0.30;;;;;;;;;;5030676;28;20017;-69
2023/04/13 05:18:03;;;;;;;5.28;0.60;;;;;;;;;;5030304;28;20501;-70
2023/04/13 05:20:28;;;;;;;3.72;0.50;;;;;;;;;;5027395;28;20021;-70
2023/04/13 05:22:53;;;;;;;4.45;0.30;;;;;;;;;;5033823;28;20025;-70
2023/04/13 05:25:19;;;;;;;0.10;0.10;;;;;;;;;;5026918;28;20028;-69
2023/04/13 05:27:44;;;;;;;0.25;0.20;;;;;;;;;;5031165;28;20021;-69
2023/04/13 05:30:09;;;;;;;4.47;0.45;;;;;;;;;;5028442;28;21749;-69
2023/04/13 05:32:35;;;;;;;1.25;0.20;;;;;;;;;;5032936;28;20033;-69
2023/04/13 05:35:00;;;;;;;0.82;0.47;;;;;;;;;;5028851;28;20025;-70
2023/04/13 05:37:26;;;;;;;0.38;0.20;;;;;;;;;;5032580;28;20096;-69
2023/04/13 05:39:51;;;;;;;0.20;0.20;;;;;;;;;;5031204;28;20037;-70
2023/04/13 05:42:16;;;;;;;0.22;0.20;;;;;;;;;;5030282;28;20028;-70
2023/04/13 05:44:41;;;;;;;2.63;0.52;;;;;;;;;;5030943;28;20545;-70
2023/04/13 05:47:06;;;;;;;3.63;0.40;;;;;;;;;;5035606;28;20025;-69
2023/04/13 05:49:32;;;;;;;1.03;0.40;;;;;;;;;;5030394;28;20513;-70
2023/04/13 05:51:57;;;;;;;1.55;0.30;;;;;;;;;;5029402;28;20299;-70
2023/04/13 05:54:23;;;;;;;1.48;0.38;;;;;;;;;;5030241;28;20075;-70
2023/04/13 05:56:48;;;;;;;0.60;0.45;;;;;;;;;;5030917;28;20021;-70
2023/04/13 05:59:14;;;;;;;1.17;0.40;;;;;;;;;;5028315;28;20040;-70
2023/04/13 06:01:39;;;;;;;0.68;0.30;;;;;;;;;;5031004;28;20448;-69
2023/04/13 06:04:04;;;;;;;1.47;0.50;;;;;;;;;;5030748;28;20112;-70
2023/04/13 06:06:30;;;;;;;2.58;0.32;;;;;;;;;;5031677;28;20280;-70
2023/04/13 06:08:55;;;;;;;1.27;0.30;;;;;;;;;;5031076;28;20554;-69
2023/04/13 06:11:20;;;;;;;0.57;0.30;;;;;;;;;;5033244;28;20018;-69
2023/04/13 06:13:46;;;;;;;2.55;0.30;;;;;;;;;;5034266;28;20029;-70
2023/04/13 06:16:12;;;;;;;1.50;0.40;;;;;;;;;;5030762;28;20091;-69
2023/04/13 06:18:37;;;;;;;2.72;0.40;;;;;;;;;;5030112;28;20796;-70
2023/04/13 06:21:02;;;;;;;2.65;0.43;;;;;;;;;;5030751;28;20013;-70
2023/04/13 06:23:27;;;;;;;1.13;0.22;;;;;;;;;;5030793;28;20454;-70
2023/04/13 06:25:53;;;;;;;1.20;0.40;;;;;;;;;;5029228;28;20430;-69
2023/04/13 06:28:19;;;;;;;1.17;0.40;;;;;;;;;;5035438;28;20267;-69
2023/04/13 06:30:44;;;;;;;3.03;0.45;;;;;;;;;;5027636;28;20035;-69
2023/04/13 06:33:10;;;;;;;3.80;0.90;;;;;;;;;;5028442;28;20017;-69
2023/04/13 06:35:35;;;;;;;1.25;0.45;;;;;;;;;;5033478;28;20028;-69
2023/04/13 06:38:00;;;;;;;0.60;0.32;;;;;;;;;;5031451;28;20053;-69
2023/04/13 06:40:26;;;;;;;1.00;0.50;;;;;;;;;;5034727;28;20043;-69
2023/04/13 06:42:52;;;;;;;0.10;0.10;;;;;;;;;;5026901;28;20398;-70
2023/04/13 06:45:17;;;;;;;4.82;0.57;;;;;;;;;;5034611;28;20013;-69
2023/04/13 06:47:42;;;;;;;0.32;0.13;;;;;;;;;;5029864;28;20033;-69
2023/04/13 06:50:09;;;;;;;2.38;0.43;;;;;;;;;;5029249;28;20028;-70
2023/04/13 06:52:34;;;;;;;1.05;0.30;;;;;;;;;;5028885;28;20442;-69
2023/04/13 06:55:00;;;;;;;3.63;0.40;;;;;;;;;;5030734;28;20114;-69
2023/04/13 06:57:25;;;;;;;6.32;0.68;;;;;;;;;;5031009;28;20163;-69
2023/04/13 06:59:50;;;;;;;1.90;0.50;;;;;;;;;;5029684;28;20048;-69
2023/04/13 07:02:16;;;;;;;2.75;0.60;;;;;;;;;;5029493;28;20021;-69
2023/04/13 07:04:41;;;;;;;4.43;1.83;;;;;;;;;;5027705;28;20406;-69
2023/04/13 07:07:06;;;;;;;0.50;0.38;;;;;;;;;;5028414;28;20021;-70
2023/04/13 07:09:31;;;;;;;2.55;0.73;;;;;;;;;;5031107;28;20053;-70
2023/04/13 07:12:01;;;;;;;1.60;0.55;;;;;;;;;;5028003;28;20022;-70
2023/04/13 07:14:26;;;;;;;2.20;0.68;;;;;;;;;;5035415;28;20045;-70
2023/04/13 07:16:51;;;;;;;0.97;0.43;;;;;;;;;;5030853;28;20473;-70
2023/04/13 07:19:19;;;;;;;2.00;0.30;;;;;;;;;;5026316;28;20265;-71
2023/04/13 07:21:44;;;;;;;1.02;0.30;;;;;;;;;;5030323;28;20740;-71
2023/04/13 07:24:09;;;;;;;1.17;0.40;;;;;;;;;;5029464;28;20041;-69
2023/04/13 07:26:34;;;;;;;2.40;0.57;;;;;;;;;;5032717;28;20286;-69
2023/04/13 07:29:00;;;;;;;2.38;0.65;;;;;;;;;;5032828;28;20048;-69
2023/04/13 07:31:25;;;;;;;1.47;0.33;;;;;;;;;;5028846;28;20471;-69
2023/04/13 07:33:50;;;;;;;2.92;0.63;;;;;;;;;;5030653;28;20326;-69
2023/04/13 07:36:15;;;;;;;1.53;0.60;;;;;;;;;;5037232;28;20021;-69
2023/04/13 07:38:41;;;;;;;5.95;1.25;;;;;;;;;;5034058;28;21069;-70
2023/04/13 07:41:06;;;;;;;0.70;0.30;;;;;;;;;;5029417;28;20470;-69
2023/04/13 07:43:31;;;;;;;1.23;0.35;;;;;;;;;;5031303;28;20025;-69
2023/04/13 07:45:56;;;;;;;1.47;0.80;;;;;;;;;;5036809;28;20371;-70
2023/04/13 07:48:21;;;;;;;1.80;0.50;;;;;;;;;;5031538;28;20272;-70
2023/04/13 07:50:47;;;;;;;1.30;0.47;;;;;;;;;;5030045;28;20501;-70
2023/04/13 07:53:12;;;;;;;0.20;0.20;;;;;;;;;;5031643;28;20275;-70
2023/04/13 07:55:37;;;;;;;0.30;0.30;;;;;;;;;;5034307;28;20014;-69
2023/04/13 07:58:02;;;;;;;0.60;0.35;;;;;;;;;;5031570;28;20033;-69
2023/04/13 08:00:28;;;;;;;1.50;0.23;;;;;;;;;;5025168;28;20124;-69
2023/04/13 08:02:53;;;;;;;6.60;0.53;;;;;;;;;;5030736;28;20276;-70
2023/04/13 08:05:18;;;;;;;7.90;1.05;;;;;;;;;;5028925;28;20745;-71
2023/04/13 08:07:45;;;;;;;3.25;0.77;;;;;;;;;;5028831;28;20021;-70
2023/04/13 08:10:10;;;;;;;1.80;0.50;;;;;;;;;;5024591;28;20075;-70
2023/04/13 08:12:36;;;;;;;1.20;0.47;;;;;;;;;;5028058;28;20022;-70
2023/04/13 08:15:01;;;;;;;2.45;0.40;;;;;;;;;;5029161;28;20494;-70
2023/04/13 08:17:26;;;;;;;5.72;0.80;;;;;;;;;;5030346;28;20037;-70
2023/04/13 08:19:51;;;;;;;2.45;0.20;;;;;;;;;;5033192;28;20021;-70
2023/04/13 08:22:17;;;;;;;2.17;0.50;;;;;;;;;;5033456;28;20112;-70
2023/04/13 08:24:42;;;;;;;2.30;0.90;;;;;;;;;;5032775;28;20284;-71
2023/04/13 08:27:08;;;;;;;4.47;0.65;;;;;;;;;;5031832;28;20025;-70
2023/04/13 08:29:34;;;;;;;2.47;0.75;;;;;;;;;;5032900;28;20049;-70
2023/04/13 08:32:00;;;;;;;3.70;0.77;;;;;;;;;;5037982;28;20439;-71
2023/04/13 08:34:26;;;;;;;1.40;0.40;;;;;;;;;;5035003;28;20624;-69
2023/04/13 08:36:51;;;;;;;5.40;0.73;;;;;;;;;;5033701;28;20021;-70
2023/04/13 08:39:16;;;;;;;2.53;0.50;;;;;;;;;;5035421;28;20041;-70
2023/04/13 08:41:46;;;;;;;6.40;0.75;;;;;;;;;;5033359;28;20013;-71
2023/04/13 08:44:12;;;;;;;1.27;0.60;;;;;;;;;;5032019;28;20020;-71
2023/04/13 08:46:37;;;;;;;1.92;0.63;;;;;;;;;;5033146;28;20708;-71
2023/04/13 08:49:02;;;;;;;15.63;1.30;;;;;;;;;;5032100;28;20029;-71
2023/04/13 08:51:31;;;;;;;1.48;0.55;;;;;;;;;;5027340;28;20030;-71
2023/04/13 08:53:57;;;;;;;14.60;1.38;;;;;;;;;;5033367;28;20024;-71
2023/04/13 08:56:23;;;;;;;4.50;1.23;;;;;;;;;;5033307;28;20494;-71
2023/04/13 08:58:50;;;;;;;2.95;1.23;;;;;;;;;;5032482;28;20144;-71
2023/04/13 09:01:15;;;;;;;5.07;1.73;;;;;;;;;;5032855;28;20013;-71
2023/04/13 09:03:52;;;;;;;7.80;2.53;;;;;;;;;;5032105;28;20108;-71
2023/04/13 09:06:23;;;;;;;4.18;1.08;;;;;;;;;;5022739;28;20026;-70
2023/04/13 09:08:48;;;;;;;8.38;1.17;;;;;;;;;;5030097;28;20025;-71
2023/04/13 09:11:13;;;;;;;5.22;1.90;;;;;;;;;;5031115;28;20422;-70
2023/04/13 09:13:38;;;;;;;13.90;1.52;;;;;;;;;;5034652;28;20473;-71
2023/04/13 09:16:04;;;;;;;9.07;1.57;;;;;;;;;;5033251;28;20455;-71
2023/04/13 09:18:29;;;;;;;6.13;1.40;;;;;;;;;;5033491;28;20296;-71
2023/04/13 09:20:55;;;;;;;7.45;1.88;;;;;;;;;;5032134;28;20092;-71
2023/04/13 09:23:21;;;;;;;10.52;1.85;;;;;;;;;;5029848;28;20017;-71
2023/04/13 09:25:46;;;;;;;4.80;1.52;;;;;;;;;;5032553;28;20108;-71
2023/04/13 09:28:18;;;;;;;19.83;2.30;;;;;;;;;;5031328;28;20079;-71
2023/04/13 09:30:43;;;;;;;11.43;2.22;;;;;;;;;;5027593;28;20272;-71
2023/04/13 09:33:10;;;;;;;5.85;1.50;;;;;;;;;;5030996;28;20698;-71
2023/04/13 09:35:36;;;;;;;8.57;2.03;;;;;;;;;;5029336;28;20025;-71
2023/04/13 09:38:01;;;;;;;5.35;1.40;;;;;;;;;;5029304;28;20029;-71
2023/04/13 09:40:27;;;;;;;12.00;1.48;;;;;;;;;;5031906;28;20666;-71
2023/04/13 09:42:57;;;;;;;5.85;1.38;;;;;;;;;;5029928;28;20470;-70
2023/04/13 09:45:23;;;;;;;7.97;2.00;;;;;;;;;;5026519;28;20533;-71
2023/04/13 09:47:48;;;;;;;14.45;2.03;;;;;;;;;;5032123;28;20033;-71
2023/04/13 09:50:25;;;;;;;10.05;1.88;;;;;;;;;;5028896;28;20030;-71
2023/04/13 09:53:01;;;;;;;5.13;1.35;;;;;;;;;;5027302;28;20025;-71
2023/04/13 09:55:26;;;;;;;5.45;1.73;;;;;;;;;;5027853;28;20026;-71
2023/04/13 09:57:52;;;;;;;7.28;1.55;;;;;;;;;;5029783;28;20075;-71
2023/04/13 10:00:20;;;;;;;5.22;1.30;;;;;;;;;;5030049;28;20021;-71
2023/04/13 10:02:49;;;;;;;18.90;3.08;;;;;;;;;;5031250;28;20017;-71
2023/04/13 10:05:14;;;;;;;11.48;2.75;;;;;;;;;;5025999;28;20013;-71
2023/04/13 10:07:43;;;;;;;12.02;1.58;;;;;;;;;;5036579;28;20066;-71
2023/04/13 10:10:08;;;;;;;9.00;1.67;;;;;;;;;;5030622;28;20033;-71
2023/04/13 10:12:35;;;;;;;6.00;1.42;;;;;;;;;;5027115;28;20025;-71
2023/04/13 10:15:20;;;;;;;22.02;3.25;;;;;;;;;;5030452;28;20049;-71
2023/04/13 10:17:52;;;;;;;12.85;2.47;;;;;;;;;;5029378;28;20434;-71
2023/04/13 10:20:18;;;;;;;8.80;2.05;;;;;;;;;;5027930;28;20506;-72
2023/04/13 10:22:44;;;;;;;9.90;1.88;;;;;;;;;;5031527;28;20083;-72
2023/04/13 10:25:14;;;;;;;17.05;3.25;;;;;;;;;;5028758;28;20018;-72
2023/04/13 10:27:40;;;;;;;12.70;2.22;;;;;;;;;;5031591;28;20014;-72
2023/04/13 10:30:12;;;;;;;7.15;2.47;;;;;;;;;;5029436;28;20026;-72
2023/04/13 10:32:37;;;;;;;3.72;1.48;;;;;;;;;;5029275;28;20528;-72
2023/04/13 10:35:10;;;;;;;8.18;1.75;;;;;;;;;;5030825;28;20032;-72
2023/04/13 10:37:37;;;;;;;0.73;0.47;;;;;;;;;;5028530;28;20020;-72
2023/04/13 10:40:09;;;;;;;5.85;1.65;;;;;;;;;;5030138;28;20026;-72
2023/04/13 10:42:45;;;;;;;12.60;2.08;;;;;;;;;;5026551;28;20013;-72
2023/04/13 10:45:17;;;;;;;9.18;1.27;;;;;;;;;;5031217;28;20013;-72
2023/04/13 10:47:42;;;;;;;16.95;1.85;;;;;;;;;;5029169;28;20113;-72
2023/04/13 10:50:17;;;;;;;12.38;2.25;;;;;;;;;;5029926;28;20104;-72
2023/04/13 10:53:06;;;;;;;7.47;1.40;;;;;;;;;;5027582;28;20468;-72
2023/04/13 10:55:32;;;;;;;5.53;1.85;;;;;;;;;;5030711;28;20032;-72
2023/04/13 10:57:58;;;;;;;19.92;2.00;;;;;;;;;;5030446;28;20029;-71
2023/04/13 11:00:24;;;;;;;4.43;1.17;;;;;;;;;;5031542;28;20010;-72
2023/04/13 11:02:50;;;;;;;9.70;1.90;;;;;;;;;;5032345;28;20405;-73
2023/04/13 11:05:17;;;;;;;10.43;1.80;;;;;;;;;;5028839;28;20478;-71
2023/04/13 11:07:44;;;;;;;6.43;2.17;;;;;;;;;;5027644;28;20041;-71
2023/04/13 11:10:09;;;;;;;18.33;1.65;;;;;;;;;;5030210;28;20048;-71
2023/04/13 11:12:34;;;;;;;6.78;2.15;;;;;;;;;;5028860;28;20517;-71
2023/04/13 11:15:00;;;;;;;7.10;1.42;;;;;;;;;;5031960;28;20029;-71
2023/04/13 11:17:25;;;;;;;3.40;1.25;;;;;;;;;;5027903;28;20087;-71
2023/04/13 11:19:51;;;;;;;4.03;1.27;;;;;;;;;;5029318;28;20021;-71
2023/04/13 11:22:18;;;;;;;8.82;0.90;;;;;;;;;;5029352;28;20018;-71
2023/04/13 11:24:46;;;;;;;7.20;1.63;;;;;;;;;;5028220;28;20033;-71
2023/04/13 11:27:15;;;;;;;8.45;1.98;;;;;;;;;;5029730;28;20017;-71
2023/04/13 11:29:40;;;;;;;7.03;2.00;;;;;;;;;;5027166;28;20108;-71
2023/04/13 11:32:14;;;;;;;9.38;1.80;;;;;;;;;;5028285;28;20163;-71
2023/04/13 11:34:39;;;;;;;10.38;2.13;;;;;;;;;;5027065;28;20025;-71
2023/04/13 11:37:06;;;;;;;14.50;2.00;;;;;;;;;;5027747;28;20033;-71
2023/04/13 11:39:33;;;;;;;23.50;2.50;;;;;;;;;;5031269;28;20330;-71
2023/04/13 11:42:02;;;;;;;14.48;2.10;;;;;;;;;;5028556;28;20033;-71
2023/04/13 11:44:28;;;;;;;17.00;3.17;;;;;;;;;;5028985;28;20022;-71
2023/04/13 11:46:53;;;;;;;16.52;2.50;;;;;;;;;;5031997;28;20026;-71
2023/04/13 11:49:18;;;;;;;12.88;1.77;;;;;;;;;;5027740;28;20039;-71
2023/04/13 11:51:43;;;;;;;14.00;2.60;;;;;;;;;;5028410;28;20025;-71
2023/04/13 11:54:09;;;;;;;5.03;1.65;;;;;;;;;;5032168;28;20120;-71
2023/04/13 11:56:34;;;;;;;3.47;1.70;;;;;;;;;;5027975;28;20021;-71
2023/04/13 11:59:00;;;;;;;16.60;3.00;;;;;;;;;;5033062;28;20143;-71
2023/04/13 12:01:25;;;;;;;11.75;2.17;;;;;;;;;;5026164;28;20105;-71
2023/04/13 12:03:50;;;;;;;7.53;1.45;;;;;;;;;;5032731;28;20246;-71
2023/04/13 12:06:16;;;;;;;23.70;3.58;;;;;;;;;;5030451;28;20029;-71
2023/04/13 12:08:41;;;;;;;4.95;2.13;;;;;;;;;;5028963;28;20084;-71
2023/04/13 12:11:07;;;;;;;2.30;1.25;;;;;;;;;;5031591;28;20483;-71
2023/04/13 12:13:39;;;;;;;7.40;2.10;;;;;;;;;;5026817;28;20027;-71
2023/04/13 12:16:05;;;;;;;12.73;2.17;;;;;;;;;;5026111;28;20052;-71
2023/04/13 12:18:31;;;;;;;7.65;1.48;;;;;;;;;;5028410;28;20021;-73
2023/04/13 12:20:59;;;;;;;13.98;1.95;;;;;;;;;;5027894;28;20013;-71
2023/04/13 12:23:25;;;;;;;8.07;1.25;;;;;;;;;;5029163;28;20022;-71
2023/04/13 12:25:57;;;;;;;22.58;3.35;;;;;;;;;;5027488;28;20032;-71
2023/04/13 12:28:29;;;;;;;11.32;2.00;;;;;;;;;;5025045;28;20111;-71
2023/04/13 12:30:59;;;;;;;8.73;1.85;;;;;;;;;;5023748;28;20382;-71
2023/04/13 12:33:24;;;;;;;10.65;2.33;;;;;;;;;;5028400;28;20092;-73
2023/04/13 12:35:50;;;;;;;12.63;2.08;;;;;;;;;;5031516;28;20180;-73
2023/04/13 12:38:15;;;;;;;16.97;3.10;;;;;;;;;;5026932;28;20069;-73
2023/04/13 12:40:40;;;;;;;13.53;3.50;;;;;;;;;;5027038;28;20314;-73
2023/04/13 12:43:05;;;;;;;11.23;1.98;;;;;;;;;;5030070;28;20303;-73
2023/04/13 12:45:31;;;;;;;29.03;3.53;;;;;;;;;;5027124;28;20025;-72
2023/04/13 12:47:56;;;;;;;13.70;1.92;;;;;;;;;;5026557;28;20745;-72
2023/04/13 12:50:21;;;;;;;6.93;1.20;;;;;;;;;;5027737;28;20052;-73
2023/04/13 12:52:46;;;;;;;9.83;1.93;;;;;;;;;;5027879;28;20029;-72
2023/04/13 12:55:11;;;;;;;10.90;1.90;;;;;;;;;;5028616;28;20836;-73
2023/04/13 12:57:38;;;;;;;6.28;1.52;;;;;;;;;;5027379;28;20464;-73
2023/04/13 13:00:09;;;;;;;10.85;1.92;;;;;;;;;;5025782;28;20427;-73
2023/04/13 13:02:34;;;;;;;7.93;1.92;;;;;;;;;;5027394;28;20021;-73
2023/04/13 13:04:59;;;;;;;11.95;2.00;;;;;;;;;;5027991;28;20027;-72
2023/04/13 13:07:25;;;;;;;12.70;1.70;;;;;;;;;;5029397;28;20105;-72
2023/04/13 13:09:50;;;;;;;13.25;2.35;;;;;;;;;;5031327;28;20045;-70
2023/04/13 13:12:15;;;;;;;7.30;1.75;;;;;;;;;;5024275;28;20025;-73
2023/04/13 13:14:41;;;;;;;7.97;1.70;;;;;;;;;;5027241;28;20038;-73
2023/04/13 13:17:06;;;;;;;6.78;1.63;;;;;;;;;;5028953;28;20288;-73
2023/04/13 13:19:31;;;;;;;6.90;1.70;;;;;;;;;;5027737;28;20029;-73
2023/04/13 13:21:57;;;;;;;8.18;1.60;;;;;;;;;;5029877;28;20079;-73
2023/04/13 13:24:22;;;;;;;3.67;0.82;;;;;;;;;;5029234;28;20036;-73
2023/04/13 13:26:48;;;;;;;3.83;0.98;;;;;;;;;;5027959;28;20100;-72
2023/04/13 13:29:14;;;;;;;6.13;1.42;;;;;;;;;;5028453;28;20036;-73
2023/04/13 13:31:40;;;;;;;5.93;1.10;;;;;;;;;;5028582;28;20028;-73
2023/04/13 13:34:05;;;;;;;7.20;1.55;;;;;;;;;;5031028;28;20474;-73
2023/04/13 13:36:30;;;;;;;7.60;1.60;;;;;;;;;;5029689;28;20108;-73
2023/04/13 13:38:56;;;;;;;12.73;1.57;;;;;;;;;;5028799;28;20349;-73
2023/04/13 13:41:22;;;;;;;9.57;2.05;;;;;;;;;;5030531;28;20764;-73
2023/04/13 13:43:47;;;;;;;11.23;2.55;;;;;;;;;;5030600;28;20060;-73
2023/04/13 13:46:12;;;;;;;5.00;1.33;;;;;;;;;;5031247;28;20068;-73
2023/04/13 13:48:37;;;;;;;8.77;1.50;;;;;;;;;;5029928;28;20651;-73
2023/04/13 13:51:03;;;;;;;4.68;0.75;;;;;;;;;;5031125;28;20286;-73
2023/04/13 13:53:28;;;;;;;6.05;1.33;;;;;;;;;;5027893;28;20014;-73
2023/04/13 13:55:54;;;;;;;6.22;1.70;;;;;;;;;;5030072;28;20017;-72
2023/04/13 13:58:19;;;;;;;6.97;1.30;;;;;;;;;;5030385;28;20033;-73
2023/04/13 14:00:44;;;;;;;8.63;1.53;;;;;;;;;;5028601;28;20390;-73
2023/04/13 14:03:10;;;;;;;16.77;1.42;;;;;;;;;;5030419;28;20278;-73
2023/04/13 14:05:36;;;;;;;5.35;1.25;;;;;;;;;;5029963;28;20368;-73
2023/04/13 14:08:01;;;;;;;10.38;1.45;;;;;;;;;;5028695;28;20025;-73
2023/04/13 14:10:26;;;;;;;5.93;1.52;;;;;;;;;;5029216;28;20049;-73
2023/04/13 14:12:54;;;;;;;2.77;1.13;;;;;;;;;;5030434;28;20666;-73
2023/04/13 14:15:19;;;;;;;4.50;0.75;;;;;;;;;;5030882;28;20669;-73
2023/04/13 14:17:44;;;;;;;7.57;1.35;;;;;;;;;;5028452;28;20021;-73
2023/04/13 14:20:13;;;;;;;4.97;1.52;;;;;;;;;;5032593;28;20021;-73
2023/04/13 14:22:39;;;;;;;8.93;1.58;;;;;;;;;;5026564;28;20029;-73
2023/04/13 14:25:05;;;;;;;7.65;1.98;;;;;;;;;;5030944;28;20064;-73
2023/04/13 14:27:31;;;;;;;10.10;1.92;;;;;;;;;;5028447;28;20463;-73
2023/04/13 14:29:56;;;;;;;9.73;1.88;;;;;;;;;;5029281;28;20029;-73
2023/04/13 14:32:21;;;;;;;5.43;1.50;;;;;;;;;;5030464;28;20068;-73
2023/04/13 14:34:46;;;;;;;8.45;1.98;;;;;;;;;;5033400;28;20075;-73